createdAt,value
2022-09-06T00:19:06.183Z,9.93
2022-09-06T00:49:24.507Z,9.57
2022-09-06T01:20:13.887Z,7.97
2022-09-06T01:50:44.497Z,9.70
2022-09-06T02:20:56.912Z,7.70
2022-09-06T02:51:09.026Z,8.13
2022-09-06T03:21:17.783Z,8.80
2022-09-06T03:51:26.933Z,8.73
2022-09-06T04:21:35.992Z,10.03
2022-09-06T04:51:44.736Z,10.97
2022-09-06T05:21:54.022Z,11.60
2022-09-06T05:52:02.793Z,10.83
2022-09-06T06:22:11.508Z,7.17
2022-09-06T06:52:21.574Z,6.68
2022-09-06T07:22:30.423Z,6.55
2022-09-06T08:23:12.527Z,3.63
2022-09-06T08:53:25.197Z,4.00
2022-09-06T09:23:34.285Z,4.18
2022-09-06T09:53:53.487Z,4.47
2022-09-06T10:24:29.908Z,5.20
2022-09-06T10:54:42.639Z,5.20
2022-09-06T11:25:18.149Z,4.97
2022-09-06T11:55:32.737Z,4.65
2022-09-06T12:26:00.550Z,4.82
2022-09-06T12:56:14.458Z,4.50
2022-09-06T13:26:41.014Z,4.28
2022-09-06T13:56:50.160Z,3.58
2022-09-06T14:26:58.734Z,3.53
2022-09-06T14:57:08.207Z,4.07
2022-09-06T15:27:16.722Z,4.43
2022-09-06T15:57:25.221Z,3.80
2022-09-06T16:27:34.064Z,5.15
2022-09-06T16:57:44.385Z,3.95
2022-09-06T17:27:53.518Z,5.07
2022-09-06T17:58:02.380Z,7.15
2022-09-06T18:28:10.791Z,5.47
2022-09-06T18:58:19.874Z,6.63
2022-09-06T19:28:29.109Z,5.57
2022-09-06T19:58:38.299Z,6.20
2022-09-06T20:28:47.535Z,5.50
2022-09-06T20:58:59.525Z,7.03
2022-09-06T21:29:08.514Z,6.90
2022-09-06T21:59:17.003Z,6.90
2022-09-06T22:29:26.096Z,7.87
2022-09-06T22:59:37.404Z,7.37
2022-09-06T23:29:46.369Z,7.20
2022-09-06T23:59:54.960Z,6.00
